createdAt,value
2018-08-24T00:00:12.910Z,995.80
2018-08-24T00:01:12.905Z,995.83
2018-08-24T00:02:12.901Z,995.81
2018-08-24T00:03:12.897Z,995.78
2018-08-24T00:04:12.889Z,995.82
2018-08-24T00:05:12.883Z,995.76
2018-08-24T00:06:12.878Z,995.77
2018-08-24T00:07:12.889Z,995.74
2018-08-24T00:08:12.867Z,995.71
2018-08-24T00:09:12.862Z,995.73
2018-08-24T00:10:12.856Z,995.78
2018-08-24T00:11:12.850Z,995.72
2018-08-24T00:12:12.845Z,995.72
2018-08-24T00:13:12.843Z,995.70
2018-08-24T00:14:12.835Z,995.69
2018-08-24T00:15:12.830Z,995.71
2018-08-24T00:16:12.823Z,995.70
2018-08-24T00:17:12.819Z,995.68
2018-08-24T00:18:12.813Z,995.72
2018-08-24T00:19:12.806Z,995.76
2018-08-24T00:20:12.801Z,995.72
2018-08-24T00:21:12.796Z,995.75
2018-08-24T00:22:12.791Z,995.75
2018-08-24T00:23:12.785Z,995.74
2018-08-24T00:24:12.781Z,995.76
2018-08-24T00:25:12.774Z,995.74
2018-08-24T00:26:12.769Z,995.69
2018-08-24T00:27:12.764Z,995.71
2018-08-24T00:28:12.758Z,995.69
2018-08-24T00:29:12.753Z,995.70
2018-08-24T00:30:12.749Z,995.65
2018-08-24T00:31:12.741Z,995.62
2018-08-24T00:32:12.738Z,995.57
2018-08-24T00:33:12.731Z,995.57
2018-08-24T00:34:12.726Z,995.57
2018-08-24T00:35:12.720Z,995.55
2018-08-24T00:36:12.715Z,995.63
2018-08-24T00:37:12.710Z,995.63
2018-08-24T00:38:12.705Z,995.66
2018-08-24T00:39:12.699Z,995.65
2018-08-24T00:40:12.694Z,995.67
2018-08-24T00:41:12.693Z,995.62
2018-08-24T00:42:12.684Z,995.64
2018-08-24T00:43:12.678Z,995.64
2018-08-24T00:44:12.673Z,995.68
2018-08-24T00:45:12.668Z,995.64
2018-08-24T00:46:12.664Z,995.60
2018-08-24T00:47:12.656Z,995.59
2018-08-24T00:48:12.651Z,995.54
2018-08-24T00:49:12.646Z,995.60
2018-08-24T00:50:12.641Z,995.58
2018-08-24T00:51:12.638Z,995.57
2018-08-24T00:52:12.630Z,995.57
2018-08-24T00:53:12.625Z,995.58
2018-08-24T00:54:12.622Z,995.57
2018-08-24T00:55:12.613Z,995.60
2018-08-24T00:56:12.608Z,995.57
2018-08-24T00:57:12.603Z,995.60
2018-08-24T00:58:12.598Z,995.59
2018-08-24T00:59:12.591Z,995.59
2018-08-24T01:00:12.586Z,995.60
2018-08-24T01:01:12.581Z,995.61
2018-08-24T01:02:12.576Z,995.59
2018-08-24T01:03:12.569Z,995.63
2018-08-24T01:04:12.564Z,995.60
2018-08-24T01:05:12.559Z,995.63
2018-08-24T01:06:12.553Z,995.57
2018-08-24T01:07:12.547Z,995.55
2018-08-24T01:08:12.542Z,995.57
2018-08-24T01:09:12.536Z,995.57
2018-08-24T01:10:12.531Z,995.62
2018-08-24T01:11:12.525Z,995.66
2018-08-24T01:12:12.518Z,995.61
2018-08-24T01:13:12.514Z,995.65
2018-08-24T01:14:12.510Z,995.64
2018-08-24T01:15:12.502Z,995.62
2018-08-24T01:16:12.496Z,995.61
2018-08-24T01:17:12.491Z,995.55
2018-08-24T01:18:12.486Z,995.59
2018-08-24T01:19:12.481Z,995.57
2018-08-24T01:20:12.474Z,995.59
2018-08-24T01:21:12.468Z,995.57
2018-08-24T01:22:12.463Z,995.61
2018-08-24T01:23:12.456Z,995.63
2018-08-24T01:24:12.451Z,995.61
2018-08-24T01:25:12.445Z,995.61
2018-08-24T01:26:12.442Z,995.60
2018-08-24T01:27:12.434Z,995.58
2018-08-24T01:28:12.428Z,995.58
2018-08-24T01:29:12.422Z,995.58
2018-08-24T01:30:12.420Z,995.59
2018-08-24T01:31:12.410Z,995.59
2018-08-24T01:32:12.405Z,995.59
2018-08-24T01:33:12.399Z,995.60
2018-08-24T01:34:12.393Z,995.58
2018-08-24T01:35:12.387Z,995.58
2018-08-24T01:36:12.381Z,995.61
2018-08-24T01:37:12.376Z,995.58
2018-08-24T01:38:12.370Z,995.60
2018-08-24T01:39:12.363Z,995.54
2018-08-24T01:40:12.357Z,995.51
2018-08-24T01:41:12.352Z,995.54
2018-08-24T01:42:12.346Z,995.50
2018-08-24T01:43:12.343Z,995.54
2018-08-24T01:44:12.333Z,995.55
2018-08-24T01:45:12.327Z,995.55
2018-08-24T01:46:12.323Z,995.49
2018-08-24T01:47:12.315Z,995.53
2018-08-24T01:48:12.309Z,995.51
2018-08-24T01:49:12.303Z,995.49
2018-08-24T01:50:12.298Z,995.54
2018-08-24T01:51:12.292Z,995.54
2018-08-24T01:52:12.285Z,995.56
2018-08-24T01:53:12.279Z,995.57
2018-08-24T01:54:12.274Z,995.58
2018-08-24T01:55:12.317Z,995.60
2018-08-24T01:56:12.262Z,995.60
2018-08-24T01:57:12.255Z,995.59
2018-08-24T01:58:12.250Z,995.58
2018-08-24T01:59:12.354Z,995.61
2018-08-24T02:00:12.238Z,995.59
2018-08-24T02:01:12.235Z,995.58
2018-08-24T02:02:12.226Z,995.57
2018-08-24T02:03:12.219Z,995.58
2018-08-24T02:04:12.213Z,995.51
2018-08-24T02:05:12.208Z,995.46
2018-08-24T02:06:12.203Z,995.47
2018-08-24T02:07:12.196Z,995.47
2018-08-24T02:08:12.192Z,995.49
2018-08-24T02:09:12.184Z,995.46
2018-08-24T02:10:12.179Z,995.50
2018-08-24T02:11:12.172Z,995.43
2018-08-24T02:12:12.167Z,995.41
2018-08-24T02:13:12.161Z,995.46
2018-08-24T02:14:12.155Z,995.44
2018-08-24T02:15:12.148Z,995.45
2018-08-24T02:16:12.143Z,995.42
2018-08-24T02:17:12.137Z,995.47
2018-08-24T02:18:12.131Z,995.47
2018-08-24T02:19:12.124Z,995.48
2018-08-24T02:20:12.119Z,995.45
2018-08-24T02:21:12.113Z,995.48
2018-08-24T02:22:12.107Z,995.44
2018-08-24T02:23:12.101Z,995.47
2018-08-24T02:24:12.094Z,995.45
2018-08-24T02:25:12.089Z,995.41
2018-08-24T02:26:12.083Z,995.38
2018-08-24T02:27:12.076Z,995.45
2018-08-24T02:28:12.070Z,995.41
2018-08-24T02:29:12.064Z,995.45
2018-08-24T02:30:12.059Z,995.39
2018-08-24T02:31:12.069Z,995.41
2018-08-24T02:32:12.046Z,995.39
2018-08-24T02:33:12.041Z,995.36
2018-08-24T02:34:12.034Z,995.42
2018-08-24T02:35:12.027Z,995.36
2018-08-24T02:36:12.024Z,995.40
2018-08-24T02:37:12.038Z,995.33
2018-08-24T02:38:12.010Z,995.31
2018-08-24T02:39:12.003Z,995.36
2018-08-24T02:40:11.997Z,995.34
2018-08-24T02:41:11.991Z,995.35
2018-08-24T02:42:11.985Z,995.38
2018-08-24T02:43:11.978Z,995.36
2018-08-24T02:44:11.972Z,995.34
2018-08-24T02:45:12.118Z,995.33
2018-08-24T02:46:11.960Z,995.34
2018-08-24T02:47:11.952Z,995.36
2018-08-24T02:48:11.947Z,995.32
2018-08-24T02:49:11.940Z,995.33
2018-08-24T02:50:11.935Z,995.34
2018-08-24T02:51:11.928Z,995.38
2018-08-24T02:52:11.922Z,995.34
2018-08-24T02:53:11.918Z,995.37
2018-08-24T02:54:11.911Z,995.38
2018-08-24T02:55:11.904Z,995.33
2018-08-24T02:56:11.897Z,995.34
2018-08-24T02:57:11.947Z,995.35
2018-08-24T02:58:11.886Z,995.33
2018-08-24T02:59:11.880Z,995.38
2018-08-24T03:00:11.873Z,995.36
2018-08-24T03:01:11.867Z,995.35
2018-08-24T03:02:11.861Z,995.31
2018-08-24T03:03:11.860Z,995.29
2018-08-24T03:04:11.848Z,995.33
2018-08-24T03:05:11.854Z,995.29
2018-08-24T03:06:11.839Z,995.30
2018-08-24T03:07:11.830Z,995.34
2018-08-24T03:08:11.828Z,995.31
2018-08-24T03:09:11.820Z,995.26
2018-08-24T03:10:11.812Z,995.29
2018-08-24T03:11:11.806Z,995.24
2018-08-24T03:12:11.799Z,995.27
2018-08-24T03:13:11.800Z,995.25
2018-08-24T03:14:11.788Z,995.27
2018-08-24T03:15:11.781Z,995.33
2018-08-24T03:16:11.815Z,995.36
2018-08-24T03:17:11.770Z,995.37
2018-08-24T03:18:11.768Z,995.33
2018-08-24T03:19:11.757Z,995.32
2018-08-24T03:20:11.753Z,995.28
2018-08-24T03:21:11.745Z,995.33
2018-08-24T03:22:11.739Z,995.28
2018-08-24T03:23:11.733Z,995.32
2018-08-24T03:24:11.726Z,995.36
2018-08-24T03:25:11.720Z,995.33
2018-08-24T03:26:11.725Z,995.28
2018-08-24T03:27:11.709Z,995.29
2018-08-24T03:28:11.702Z,995.26
2018-08-24T03:29:11.696Z,995.27
2018-08-24T03:30:11.691Z,995.26
2018-08-24T03:31:11.687Z,995.25
2018-08-24T03:32:11.679Z,995.28
2018-08-24T03:33:11.672Z,995.20
2018-08-24T03:34:11.666Z,995.27
2018-08-24T03:35:11.659Z,995.31
2018-08-24T03:36:11.654Z,995.28
2018-08-24T03:37:11.648Z,995.29
2018-08-24T03:38:11.643Z,995.26
2018-08-24T03:39:11.635Z,995.28
2018-08-24T03:40:11.634Z,995.29
2018-08-24T03:41:11.624Z,995.33
2018-08-24T03:42:11.618Z,995.33
2018-08-24T03:43:11.612Z,995.33
2018-08-24T03:44:11.606Z,995.30
2018-08-24T03:45:11.600Z,995.34
2018-08-24T03:46:11.594Z,995.33
2018-08-24T03:47:11.587Z,995.34
2018-08-24T03:48:11.581Z,995.31
2018-08-24T03:49:11.578Z,995.33
2018-08-24T03:50:11.570Z,995.34
2018-08-24T03:51:11.564Z,995.31
2018-08-24T03:52:11.757Z,995.33
2018-08-24T03:53:11.600Z,995.37
2018-08-24T03:54:11.545Z,995.37
2018-08-24T03:55:11.538Z,995.35
2018-08-24T03:56:11.533Z,995.40
2018-08-24T03:57:11.529Z,995.47
2018-08-24T03:58:11.525Z,995.46
2018-08-24T03:59:11.514Z,995.46
2018-08-24T04:00:11.508Z,995.46
2018-08-24T04:01:11.503Z,995.47
2018-08-24T04:02:11.497Z,995.46
2018-08-24T04:03:11.490Z,995.45
2018-08-24T04:04:11.488Z,995.45
2018-08-24T04:05:11.479Z,995.45
2018-08-24T04:06:11.473Z,995.45
2018-08-24T04:07:11.467Z,995.48
2018-08-24T04:08:11.460Z,995.45
2018-08-24T04:09:11.455Z,995.48
2018-08-24T04:10:11.449Z,995.46
2018-08-24T04:11:11.442Z,995.48
2018-08-24T04:12:11.436Z,995.47
2018-08-24T04:13:11.432Z,995.50
2018-08-24T04:14:11.425Z,995.48
2018-08-24T04:15:11.421Z,995.54
2018-08-24T04:16:11.413Z,995.45
2018-08-24T04:17:11.407Z,995.49
2018-08-24T04:18:11.403Z,995.47
2018-08-24T04:19:11.394Z,995.50
2018-08-24T04:20:11.388Z,995.52
2018-08-24T04:21:11.383Z,995.52
2018-08-24T04:22:11.377Z,995.55
2018-08-24T04:23:11.370Z,995.56
2018-08-24T04:24:11.365Z,995.55
2018-08-24T04:25:11.359Z,995.57
2018-08-24T04:26:11.458Z,995.56
2018-08-24T04:27:11.347Z,995.54
2018-08-24T04:28:11.341Z,995.58
2018-08-24T04:29:11.335Z,995.57
2018-08-24T04:30:11.376Z,995.62
2018-08-24T04:31:11.323Z,995.58
2018-08-24T04:32:11.317Z,995.59
2018-08-24T04:33:11.312Z,995.61
2018-08-24T04:34:11.556Z,995.61
2018-08-24T04:35:11.300Z,995.61
2018-08-24T04:36:11.294Z,995.65
2018-08-24T04:37:11.287Z,995.61
2018-08-24T04:38:11.285Z,995.60
2018-08-24T04:39:11.276Z,995.68
2018-08-24T04:40:11.272Z,995.62
2018-08-24T04:41:11.264Z,995.66
2018-08-24T04:42:11.258Z,995.62
2018-08-24T04:43:11.251Z,995.63
2018-08-24T04:44:11.246Z,995.64
2018-08-24T04:45:11.240Z,995.66
2018-08-24T04:46:11.236Z,995.71
2018-08-24T04:47:11.227Z,995.78
2018-08-24T04:48:11.221Z,995.70
2018-08-24T04:49:11.215Z,995.70
2018-08-24T04:50:11.214Z,995.71
2018-08-24T04:51:11.203Z,995.69
2018-08-24T04:52:11.197Z,995.72
2018-08-24T04:53:11.191Z,995.75
2018-08-24T04:54:11.185Z,995.74
2018-08-24T04:55:11.178Z,995.76
2018-08-24T04:56:11.172Z,995.73
2018-08-24T04:57:11.167Z,995.75
2018-08-24T04:58:11.180Z,995.74
2018-08-24T04:59:11.159Z,995.76
2018-08-24T05:00:11.150Z,995.80
2018-08-24T05:01:11.141Z,995.80
2018-08-24T05:02:11.136Z,995.82
2018-08-24T05:03:11.129Z,995.80
2018-08-24T05:04:11.123Z,995.78
2018-08-24T05:05:11.117Z,995.80
2018-08-24T05:06:11.110Z,995.81
2018-08-24T05:07:11.104Z,995.75
2018-08-24T05:08:11.098Z,995.78
2018-08-24T05:09:11.095Z,995.77
2018-08-24T05:10:11.086Z,995.81
2018-08-24T05:11:11.079Z,995.80
2018-08-24T05:12:11.073Z,995.80
2018-08-24T05:13:11.067Z,995.79
2018-08-24T05:14:11.061Z,995.83
2018-08-24T05:15:11.054Z,995.85
2018-08-24T05:16:11.048Z,995.85
2018-08-24T05:17:11.042Z,995.89
2018-08-24T05:18:11.041Z,995.87
2018-08-24T05:19:11.029Z,995.90
2018-08-24T05:20:11.024Z,995.86
2018-08-24T05:21:11.033Z,995.88
2018-08-24T05:22:11.012Z,995.89
2018-08-24T05:23:11.005Z,995.92
2018-08-24T05:24:10.999Z,995.92
2018-08-24T05:25:10.993Z,995.92
2018-08-24T05:26:10.988Z,995.99
2018-08-24T05:27:10.981Z,996.00
2018-08-24T05:28:11.082Z,995.98
2018-08-24T05:29:10.969Z,995.92
2018-08-24T05:30:10.963Z,996.01
2018-08-24T05:31:10.956Z,995.94
2018-08-24T05:32:10.959Z,995.99
2018-08-24T05:33:10.945Z,995.91
2018-08-24T05:34:10.939Z,995.91
2018-08-24T05:35:10.935Z,995.93
2018-08-24T05:36:11.129Z,995.89
2018-08-24T05:37:10.972Z,995.91
2018-08-24T05:38:10.916Z,995.90
2018-08-24T05:39:10.909Z,995.90
2018-08-24T05:40:10.903Z,995.93
2018-08-24T05:41:10.898Z,995.93
2018-08-24T05:42:10.892Z,995.94
2018-08-24T05:43:10.887Z,995.98
2018-08-24T05:44:10.879Z,995.98
2018-08-24T05:45:10.874Z,995.98
2018-08-24T05:46:10.869Z,995.98
2018-08-24T05:47:10.962Z,995.97
2018-08-24T05:48:10.856Z,995.98
2018-08-24T05:49:10.851Z,995.96
2018-08-24T05:50:10.845Z,995.96
2018-08-24T05:51:10.844Z,995.99
2018-08-24T05:52:10.833Z,995.99
2018-08-24T05:53:10.828Z,995.94
2018-08-24T05:54:10.823Z,995.99
2018-08-24T05:55:10.816Z,995.97
2018-08-24T05:56:10.814Z,995.93
2018-08-24T05:57:10.805Z,995.97
2018-08-24T05:58:10.800Z,995.97
2018-08-24T05:59:10.795Z,996.00
2018-08-24T06:00:10.788Z,995.99
2018-08-24T06:01:10.783Z,996.02
2018-08-24T06:02:10.777Z,996.04
2018-08-24T06:03:10.771Z,996.13
2018-08-24T06:04:10.765Z,996.08
2018-08-24T06:05:10.760Z,996.07
2018-08-24T06:06:10.755Z,996.09
2018-08-24T06:07:10.748Z,996.12
2018-08-24T06:08:10.746Z,996.09
2018-08-24T06:09:10.737Z,996.08
2018-08-24T06:10:10.732Z,996.08
2018-08-24T06:11:10.725Z,996.09
2018-08-24T06:12:10.721Z,996.10
2018-08-24T06:13:10.714Z,996.05
2018-08-24T06:14:10.708Z,996.09
2018-08-24T06:15:10.704Z,996.12
2018-08-24T06:16:10.697Z,996.09
2018-08-24T06:17:10.691Z,996.20
2018-08-24T06:18:10.686Z,996.24
2018-08-24T06:19:10.679Z,996.18
2018-08-24T06:20:10.673Z,996.18
2018-08-24T06:21:10.668Z,996.21
2018-08-24T06:22:10.661Z,996.23
2018-08-24T06:23:10.657Z,996.23
2018-08-24T06:24:10.649Z,996.25
2018-08-24T06:25:10.644Z,996.26
2018-08-24T06:26:10.638Z,996.32
2018-08-24T06:27:10.633Z,996.31
2018-08-24T06:28:10.625Z,996.33
2018-08-24T06:29:10.620Z,996.29
2018-08-24T06:30:10.614Z,996.34
2018-08-24T06:31:10.607Z,996.37
2018-08-24T06:32:10.600Z,996.39
2018-08-24T06:33:10.595Z,996.45
2018-08-24T06:34:10.590Z,996.44
2018-08-24T06:35:10.583Z,996.40
2018-08-24T06:36:10.579Z,996.40
2018-08-24T06:37:10.573Z,996.39
2018-08-24T06:38:10.571Z,996.43
2018-08-24T06:39:10.560Z,996.46
2018-08-24T06:40:10.554Z,996.46
2018-08-24T06:41:10.553Z,996.48
2018-08-24T06:42:10.543Z,996.45
2018-08-24T06:43:10.542Z,996.47
2018-08-24T06:44:10.531Z,996.54
2018-08-24T06:45:10.526Z,996.48
2018-08-24T06:46:10.522Z,996.54
2018-08-24T06:47:10.517Z,996.54
2018-08-24T06:48:10.507Z,996.55
2018-08-24T06:49:10.503Z,996.54
2018-08-24T06:50:10.497Z,996.59
2018-08-24T06:51:10.490Z,996.60
2018-08-24T06:52:10.486Z,996.59
2018-08-24T06:53:10.504Z,996.59
2018-08-24T06:54:10.475Z,996.59
2018-08-24T06:55:10.467Z,996.55
2018-08-24T06:56:10.462Z,996.62
2018-08-24T06:57:10.456Z,996.64
2018-08-24T06:58:10.451Z,996.61
2018-08-24T06:59:10.444Z,996.64
2018-08-24T07:00:10.438Z,996.72
2018-08-24T07:01:10.433Z,996.77
2018-08-24T07:02:10.527Z,996.70
2018-08-24T07:03:10.423Z,996.73
2018-08-24T07:04:10.415Z,996.70
2018-08-24T07:05:10.411Z,996.73
2018-08-24T07:06:10.407Z,996.70
2018-08-24T07:07:10.396Z,996.75
2018-08-24T07:08:10.392Z,996.78
2018-08-24T07:09:10.386Z,996.76
2018-08-24T07:10:10.381Z,996.79
2018-08-24T07:11:10.374Z,996.71
2018-08-24T07:12:10.369Z,996.75
2018-08-24T07:13:10.364Z,996.73
2018-08-24T07:14:10.358Z,996.80
2018-08-24T07:15:10.352Z,996.80
2018-08-24T07:16:10.346Z,996.77
2018-08-24T07:17:10.341Z,996.82
2018-08-24T07:18:10.335Z,996.79
2018-08-24T07:19:10.329Z,996.82
2018-08-24T07:20:10.324Z,996.82
2018-08-24T07:21:10.318Z,996.80
2018-08-24T07:22:10.313Z,996.80
2018-08-24T07:23:10.307Z,996.74
2018-08-24T07:24:10.301Z,996.77
2018-08-24T07:25:10.352Z,996.83
2018-08-24T07:26:10.290Z,996.86
2018-08-24T07:27:10.284Z,996.85
2018-08-24T07:28:10.279Z,996.85
2018-08-24T07:29:10.273Z,996.87
2018-08-24T07:30:10.268Z,996.86
2018-08-24T07:31:10.261Z,996.84
2018-08-24T07:32:10.256Z,996.91
2018-08-24T07:33:10.250Z,996.89
2018-08-24T07:34:10.245Z,996.92
2018-08-24T07:35:10.238Z,997.00
2018-08-24T07:36:10.232Z,996.99
2018-08-24T07:37:10.227Z,996.95
2018-08-24T07:38:10.221Z,997.01
2018-08-24T07:39:10.214Z,997.04
2018-08-24T07:40:10.209Z,997.05
2018-08-24T07:41:10.203Z,997.03
2018-08-24T07:42:10.198Z,997.07
2018-08-24T07:43:10.191Z,997.12
2018-08-24T07:44:10.186Z,997.12
2018-08-24T07:45:10.187Z,997.08
2018-08-24T07:46:10.174Z,997.16
2018-08-24T07:47:10.167Z,997.14
2018-08-24T07:48:10.161Z,997.16
2018-08-24T07:49:10.155Z,997.19
2018-08-24T07:50:10.150Z,997.19
2018-08-24T07:51:10.143Z,997.18
2018-08-24T07:52:10.137Z,997.13
2018-08-24T07:53:10.137Z,997.18
2018-08-24T07:54:10.126Z,997.16
2018-08-24T07:55:10.119Z,997.10
2018-08-24T07:56:10.147Z,997.19
2018-08-24T07:57:10.263Z,997.16
2018-08-24T07:58:10.103Z,997.19
2018-08-24T07:59:10.097Z,997.19
2018-08-24T08:00:10.092Z,997.20
2018-08-24T08:01:10.086Z,997.20
2018-08-24T08:02:10.081Z,997.22
2018-08-24T08:03:10.074Z,997.27
2018-08-24T08:04:10.071Z,997.24
2018-08-24T08:05:10.101Z,997.26
2018-08-24T08:06:10.057Z,997.24
2018-08-24T08:07:10.051Z,997.17
2018-08-24T08:08:10.047Z,997.21
2018-08-24T08:09:10.042Z,997.21
2018-08-24T08:10:10.037Z,997.21
2018-08-24T08:11:10.029Z,997.25
2018-08-24T08:12:10.027Z,997.25
2018-08-24T08:13:10.019Z,997.26
2018-08-24T08:14:10.014Z,997.31
2018-08-24T08:15:10.008Z,997.31
2018-08-24T08:16:10.003Z,997.34
2018-08-24T08:17:09.999Z,997.33
2018-08-24T08:18:10.043Z,997.39
2018-08-24T08:19:09.989Z,997.39
2018-08-24T08:20:09.984Z,997.41
2018-08-24T08:21:09.980Z,997.39
2018-08-24T08:22:09.975Z,997.39
2018-08-24T08:23:09.970Z,997.42
2018-08-24T08:24:09.967Z,997.40
2018-08-24T08:25:09.961Z,997.48
2018-08-24T08:26:09.957Z,997.42
2018-08-24T08:27:09.954Z,997.41
2018-08-24T08:28:09.950Z,997.46
2018-08-24T08:29:10.146Z,997.40
2018-08-24T08:30:09.941Z,997.50
2018-08-24T08:31:09.936Z,997.52
2018-08-24T08:32:09.932Z,997.45
2018-08-24T08:33:09.932Z,997.46
2018-08-24T08:34:09.924Z,997.48
2018-08-24T08:35:09.919Z,997.46
2018-08-24T08:36:09.915Z,997.51
2018-08-24T08:37:09.911Z,997.49
2018-08-24T08:38:09.907Z,997.52
2018-08-24T08:39:09.966Z,997.53
2018-08-24T08:40:09.899Z,997.53
2018-08-24T08:41:09.896Z,997.53
2018-08-24T08:42:09.890Z,997.57
2018-08-24T08:43:09.885Z,997.54
2018-08-24T08:44:09.881Z,997.55
2018-08-24T08:45:09.888Z,997.58
2018-08-24T08:46:09.875Z,997.59
2018-08-24T08:47:09.872Z,997.56
2018-08-24T08:48:09.869Z,997.63
2018-08-24T08:49:09.868Z,997.69
2018-08-24T08:50:09.866Z,997.62
2018-08-24T08:51:09.863Z,997.63
2018-08-24T08:52:09.863Z,997.71
2018-08-24T08:53:09.865Z,997.69
2018-08-24T08:54:09.863Z,997.67
2018-08-24T08:55:09.862Z,997.66
2018-08-24T08:56:09.862Z,997.61
2018-08-24T08:57:09.863Z,997.69
2018-08-24T08:58:09.864Z,997.67
2018-08-24T08:59:09.863Z,997.72
2018-08-24T09:00:09.863Z,997.77
2018-08-24T09:01:09.864Z,997.73
2018-08-24T09:02:09.867Z,997.76
2018-08-24T09:03:09.864Z,997.86
2018-08-24T09:04:09.865Z,997.76
2018-08-24T09:05:09.868Z,997.82
2018-08-24T09:06:09.964Z,997.84
2018-08-24T09:07:09.872Z,997.78
2018-08-24T09:08:09.878Z,997.84
2018-08-24T09:09:09.876Z,997.87
2018-08-24T09:10:09.879Z,997.87
2018-08-24T09:11:09.880Z,997.85
2018-08-24T09:12:09.883Z,997.80
2018-08-24T09:13:09.885Z,997.79
2018-08-24T09:14:09.886Z,997.75
2018-08-24T09:15:09.886Z,997.78
2018-08-24T09:16:09.887Z,997.70
2018-08-24T09:17:09.888Z,997.73
2018-08-24T09:18:09.889Z,997.82
2018-08-24T09:19:09.894Z,997.87
2018-08-24T09:20:09.888Z,997.89
2018-08-24T09:21:09.892Z,997.90
2018-08-24T09:22:09.889Z,997.89
2018-08-24T09:23:09.891Z,997.92
2018-08-24T09:24:09.893Z,997.93
2018-08-24T09:25:09.932Z,997.89
2018-08-24T09:26:09.896Z,997.89
2018-08-24T09:27:09.899Z,997.90
2018-08-24T09:28:09.897Z,997.93
2018-08-24T09:29:09.898Z,997.86
2018-08-24T09:30:09.953Z,997.89
2018-08-24T09:31:09.900Z,997.89
2018-08-24T09:32:09.902Z,997.99
2018-08-24T09:33:09.905Z,998.00
2018-08-24T09:34:09.908Z,997.89
2018-08-24T09:35:09.909Z,997.93
2018-08-24T09:36:09.911Z,997.92
2018-08-24T09:37:09.913Z,997.94
2018-08-24T09:38:09.914Z,997.97
2018-08-24T09:39:09.923Z,997.94
2018-08-24T09:40:09.916Z,997.98
2018-08-24T09:41:09.916Z,997.98
2018-08-24T09:42:09.922Z,998.01
2018-08-24T09:43:10.048Z,998.00
2018-08-24T09:44:09.918Z,997.89
2018-08-24T09:45:09.918Z,997.96
2018-08-24T09:46:09.918Z,997.95
2018-08-24T09:47:09.917Z,997.88
2018-08-24T09:48:09.919Z,997.95
2018-08-24T09:49:10.092Z,997.98
2018-08-24T09:50:09.922Z,997.96
2018-08-24T09:51:09.927Z,997.92
2018-08-24T09:52:09.928Z,997.87
2018-08-24T09:53:09.932Z,997.86
2018-08-24T09:54:09.936Z,997.83
2018-08-24T09:55:09.940Z,997.80
2018-08-24T09:56:09.945Z,997.90
2018-08-24T09:57:09.951Z,997.88
2018-08-24T09:58:09.954Z,997.83
2018-08-24T09:59:09.958Z,997.89
2018-08-24T10:00:09.963Z,998.00
2018-08-24T10:01:09.969Z,997.94
2018-08-24T10:02:09.976Z,997.94
2018-08-24T10:03:09.980Z,997.96
2018-08-24T10:04:09.983Z,997.90
2018-08-24T10:05:09.987Z,997.99
2018-08-24T10:06:10.015Z,998.01
2018-08-24T10:07:09.993Z,998.02
2018-08-24T10:08:09.995Z,997.97
2018-08-24T10:09:10.000Z,997.96
2018-08-24T10:10:09.998Z,997.95
2018-08-24T10:11:09.998Z,997.94
2018-08-24T10:12:09.999Z,997.98
2018-08-24T10:13:10.060Z,998.02
2018-08-24T10:14:10.003Z,998.01
2018-08-24T10:15:10.006Z,997.99
2018-08-24T10:16:10.008Z,998.05
2018-08-24T10:17:10.012Z,998.03
2018-08-24T10:18:10.018Z,998.06
2018-08-24T10:19:10.020Z,998.06
2018-08-24T10:20:10.025Z,998.00
2018-08-24T10:21:10.034Z,998.05
2018-08-24T10:22:10.036Z,998.03
2018-08-24T10:23:10.066Z,998.07
2018-08-24T10:24:10.048Z,998.06
2018-08-24T10:25:10.053Z,998.06
2018-08-24T10:26:10.066Z,998.09
2018-08-24T10:27:10.064Z,998.02
2018-08-24T10:28:10.070Z,998.01
2018-08-24T10:29:10.096Z,998.04
2018-08-24T10:30:10.083Z,998.00
2018-08-24T10:31:10.088Z,998.06
2018-08-24T10:32:10.094Z,998.14
2018-08-24T10:33:10.100Z,998.07
2018-08-24T10:34:10.106Z,998.10
2018-08-24T10:35:10.110Z,998.01
2018-08-24T10:36:10.134Z,998.14
2018-08-24T10:37:10.121Z,998.16
2018-08-24T10:38:10.126Z,998.14
2018-08-24T10:39:10.212Z,998.07
2018-08-24T10:40:10.137Z,998.03
2018-08-24T10:41:10.149Z,998.00
2018-08-24T10:42:10.150Z,998.02
2018-08-24T10:43:10.155Z,998.07
2018-08-24T10:44:10.167Z,998.02
2018-08-24T10:45:10.172Z,998.02
2018-08-24T10:46:10.175Z,998.00
2018-08-24T10:47:10.244Z,998.05
2018-08-24T10:48:10.186Z,998.07
2018-08-24T10:49:10.247Z,998.09
2018-08-24T10:50:10.197Z,998.00
2018-08-24T10:51:10.201Z,998.10
2018-08-24T10:52:10.205Z,998.21
2018-08-24T10:53:10.209Z,998.11
2018-08-24T10:54:10.213Z,998.17
2018-08-24T10:55:10.223Z,998.09
2018-08-24T10:56:10.292Z,998.13
2018-08-24T10:57:10.227Z,998.09
2018-08-24T10:58:10.231Z,998.13
2018-08-24T10:59:10.235Z,998.12
2018-08-24T11:00:10.238Z,998.09
2018-08-24T11:01:10.242Z,998.10
2018-08-24T11:02:10.350Z,998.11
2018-08-24T11:03:10.250Z,998.16
2018-08-24T11:04:10.254Z,998.14
2018-08-24T11:05:10.259Z,998.13
2018-08-24T11:06:10.267Z,998.19
2018-08-24T11:07:10.289Z,998.09
2018-08-24T11:08:10.276Z,998.04
2018-08-24T11:09:10.282Z,998.11
2018-08-24T11:10:10.289Z,998.11
2018-08-24T11:11:10.294Z,998.13
2018-08-24T11:12:10.301Z,998.11
2018-08-24T11:13:10.307Z,998.04
2018-08-24T11:14:10.314Z,998.08
2018-08-24T11:15:10.319Z,998.05
2018-08-24T11:16:10.326Z,998.05
2018-08-24T11:17:10.332Z,998.08
2018-08-24T11:18:10.336Z,998.11
2018-08-24T11:19:10.340Z,998.17
2018-08-24T11:20:10.346Z,998.18
2018-08-24T11:21:10.351Z,998.15
2018-08-24T11:22:10.359Z,998.13
2018-08-24T11:23:10.536Z,998.16
2018-08-24T11:24:10.366Z,998.17
2018-08-24T11:25:10.372Z,998.19
2018-08-24T11:26:10.437Z,998.10
2018-08-24T11:27:10.381Z,998.12
2018-08-24T11:28:10.388Z,997.99
2018-08-24T11:29:10.451Z,998.15
2018-08-24T11:30:10.400Z,998.15
2018-08-24T11:31:10.407Z,998.20
2018-08-24T11:32:10.411Z,998.21
2018-08-24T11:33:10.418Z,998.19
2018-08-24T11:34:10.424Z,998.21
2018-08-24T11:35:10.427Z,998.23
2018-08-24T11:36:10.555Z,998.18
2018-08-24T11:37:10.440Z,998.19
2018-08-24T11:38:10.444Z,998.22
2018-08-24T11:39:10.452Z,998.20
2018-08-24T11:40:10.453Z,998.22
2018-08-24T11:41:10.460Z,998.25
2018-08-24T11:42:10.496Z,998.24
2018-08-24T11:43:10.469Z,998.23
2018-08-24T11:44:10.474Z,998.20
2018-08-24T11:45:10.480Z,998.20
2018-08-24T11:46:10.487Z,998.23
2018-08-24T11:47:10.493Z,998.27
2018-08-24T11:48:10.499Z,998.24
2018-08-24T11:49:10.507Z,998.21
2018-08-24T11:50:10.514Z,998.22
2018-08-24T11:51:10.522Z,998.22
2018-08-24T11:52:10.528Z,998.16
2018-08-24T11:53:10.535Z,998.25
2018-08-24T11:54:10.600Z,998.22
2018-08-24T11:55:10.553Z,998.25
2018-08-24T11:56:10.558Z,998.18
2018-08-24T11:57:10.566Z,998.19
2018-08-24T11:58:10.576Z,998.23
2018-08-24T11:59:10.581Z,998.24
2018-08-24T12:00:10.590Z,998.22
2018-08-24T12:01:10.610Z,998.26
2018-08-24T12:02:10.650Z,998.24
2018-08-24T12:03:10.613Z,998.27
2018-08-24T12:04:10.622Z,998.24
2018-08-24T12:05:10.628Z,998.22
2018-08-24T12:06:10.636Z,998.20
2018-08-24T12:07:10.642Z,998.16
2018-08-24T12:08:10.726Z,998.19
2018-08-24T12:09:10.654Z,998.28
2018-08-24T12:10:10.660Z,998.24
2018-08-24T12:11:10.664Z,998.17
2018-08-24T12:12:10.686Z,998.17
2018-08-24T12:13:10.673Z,998.17
2018-08-24T12:14:10.771Z,998.28
2018-08-24T12:15:10.680Z,998.22
2018-08-24T12:16:10.687Z,998.20
2018-08-24T12:17:10.689Z,998.31
2018-08-24T12:18:10.695Z,998.24
2018-08-24T12:19:10.697Z,998.21
2018-08-24T12:20:10.701Z,998.22
2018-08-24T12:21:10.738Z,998.23
2018-08-24T12:22:10.713Z,998.19
2018-08-24T12:23:10.718Z,998.12
2018-08-24T12:24:10.721Z,998.11
2018-08-24T12:25:10.726Z,998.16
2018-08-24T12:26:10.733Z,998.18
2018-08-24T12:27:10.766Z,998.14
2018-08-24T12:28:10.747Z,998.15